Time;durP1;ratioP1;P1;durP2;ratioP2;P2;SDS_P1;SDS_P2;PMS_P1;PMS_P2;Temp;Humidity;BMP_temperature;BMP_pressure;BME280_temperature;BME280_humidity;BME280_pressure;Samples;Min_cycle;Max_cycle;Signal;HPM_P1;HPM_P2
2020/12/15 00:04:03;;;;;;;13.17;7.00;;;;;;;;;;10332651;28;20233;-70
2020/12/15 00:09:05;;;;;;;11.77;6.57;;;;;;;;;;10306224;28;20605;-70
2020/12/15 00:14:07;;;;;;;15.47;7.90;;;;;;;;;;10319902;28;20214;-71
2020/12/15 00:19:11;;;;;;;15.10;7.70;;;;;;;;;;10321084;28;20219;-70
2020/12/15 00:24:13;;;;;;;14.53;8.73;;;;;;;;;;10311811;28;20226;-71
2020/12/15 00:29:16;;;;;;;16.57;8.73;;;;;;;;;;10318370;28;20259;-70
2020/12/15 00:34:19;;;;;;;15.37;9.40;;;;;;;;;;10341483;28;20241;-70
2020/12/15 00:39:20;;;;;;;16.33;9.13;;;;;;;;;;10338641;28;20213;-71
2020/12/15 00:44:22;;;;;;;22.23;10.63;;;;;;;;;;10313192;28;20222;-70
2020/12/15 00:49:25;;;;;;;16.90;10.43;;;;;;;;;;10316341;28;20213;-72
2020/12/15 00:54:27;;;;;;;19.20;11.10;;;;;;;;;;10324174;28;20240;-71
2020/12/15 00:59:29;;;;;;;18.23;11.07;;;;;;;;;;10319724;28;20217;-71
2020/12/15 01:04:32;;;;;;;25.03;11.10;;;;;;;;;;10319812;28;20248;-71
2020/12/15 01:09:34;;;;;;;17.00;9.93;;;;;;;;;;10321765;28;20691;-71
2020/12/15 01:14:36;;;;;;;19.00;10.93;;;;;;;;;;10317744;28;20240;-71
2020/12/15 01:19:38;;;;;;;20.43;11.70;;;;;;;;;;10313573;28;20214;-71
2020/12/15 01:24:41;;;;;;;25.47;11.40;;;;;;;;;;10316948;28;20218;-72
2020/12/15 01:29:43;;;;;;;20.60;10.57;;;;;;;;;;10319731;28;20434;-72
2020/12/15 01:34:46;;;;;;;19.30;10.93;;;;;;;;;;10322400;28;20232;-70
2020/12/15 01:39:48;;;;;;;19.97;10.60;;;;;;;;;;10323166;28;20735;-71
2020/12/15 01:44:51;;;;;;;18.53;10.70;;;;;;;;;;10319524;28;20209;-70
2020/12/15 01:49:54;;;;;;;32.93;11.07;;;;;;;;;;10321809;28;20217;-71
2020/12/15 01:54:56;;;;;;;16.50;10.03;;;;;;;;;;10319188;28;20238;-70
2020/12/15 01:59:58;;;;;;;17.67;9.67;;;;;;;;;;10317259;28;20697;-70
2020/12/15 02:05:01;;;;;;;19.27;9.63;;;;;;;;;;10321851;28;20760;-71
2020/12/15 02:10:04;;;;;;;16.00;9.80;;;;;;;;;;10332550;28;20675;-70
2020/12/15 02:15:06;;;;;;;17.23;9.33;;;;;;;;;;10316639;28;20276;-70
2020/12/15 02:20:09;;;;;;;15.03;9.37;;;;;;;;;;10323658;28;20227;-70
2020/12/15 02:25:12;;;;;;;17.27;9.67;;;;;;;;;;10323177;28;20692;-69
2020/12/15 02:30:14;;;;;;;16.00;9.67;;;;;;;;;;10319546;28;20209;-70
2020/12/15 02:35:15;;;;;;;14.93;9.73;;;;;;;;;;10326289;28;20703;-70
2020/12/15 02:40:18;;;;;;;14.00;8.93;;;;;;;;;;10316689;28;20687;-70
2020/12/15 02:45:20;;;;;;;18.70;9.40;;;;;;;;;;10325107;28;20216;-70
2020/12/15 02:50:24;;;;;;;16.43;9.70;;;;;;;;;;10316897;28;20213;-70
2020/12/15 02:55:26;;;;;;;17.67;10.50;;;;;;;;;;10326051;28;20244;-70
2020/12/15 03:00:29;;;;;;;17.77;10.90;;;;;;;;;;10311920;28;20247;-70
2020/12/15 03:05:31;;;;;;;18.70;10.43;;;;;;;;;;10314564;28;20274;-70
2020/12/15 03:10:34;;;;;;;18.27;10.83;;;;;;;;;;10315437;28;20217;-69
2020/12/15 03:15:36;;;;;;;16.63;9.97;;;;;;;;;;10352906;28;20245;-69
2020/12/15 03:20:39;;;;;;;14.03;9.60;;;;;;;;;;10319692;28;20316;-69
2020/12/15 03:25:41;;;;;;;14.67;9.57;;;;;;;;;;10323664;28;20224;-70
2020/12/15 03:30:44;;;;;;;14.47;9.53;;;;;;;;;;10313605;28;20597;-69
2020/12/15 03:35:46;;;;;;;19.07;9.40;;;;;;;;;;10312477;28;20240;-69
2020/12/15 03:40:48;;;;;;;16.80;9.73;;;;;;;;;;10309352;28;20221;-69
2020/12/15 03:45:50;;;;;;;15.97;8.83;;;;;;;;;;10317172;28;20213;-70
2020/12/15 03:50:52;;;;;;;15.37;9.27;;;;;;;;;;10315437;28;20225;-71
2020/12/15 03:55:55;;;;;;;14.60;9.03;;;;;;;;;;10337135;28;20237;-71
2020/12/15 04:00:57;;;;;;;20.63;9.93;;;;;;;;;;10321025;28;20220;-71
2020/12/15 04:05:58;;;;;;;18.13;10.07;;;;;;;;;;10328456;28;20233;-71
2020/12/15 04:11:01;;;;;;;17.37;10.50;;;;;;;;;;10314442;28;20594;-70
2020/12/15 04:16:03;;;;;;;21.20;10.30;;;;;;;;;;10317823;28;20322;-70
2020/12/15 04:21:05;;;;;;;18.03;10.90;;;;;;;;;;10335433;28;20317;-70
2020/12/15 04:26:08;;;;;;;18.70;10.40;;;;;;;;;;10326492;28;20213;-71
2020/12/15 04:31:09;;;;;;;18.03;9.67;;;;;;;;;;10323114;28;20225;-70
2020/12/15 04:36:12;;;;;;;15.70;9.53;;;;;;;;;;10336210;28;20372;-70
2020/12/15 04:41:15;;;;;;;18.77;9.70;;;;;;;;;;10324785;28;20209;-71
2020/12/15 04:46:18;;;;;;;15.07;9.33;;;;;;;;;;10329534;28;20213;-70
2020/12/15 04:51:24;;;;;;;21.83;10.67;;;;;;;;;;10321435;28;20354;-69
2020/12/15 04:56:27;;;;;;;19.60;10.37;;;;;;;;;;10332184;28;20331;-70
2020/12/15 05:01:29;;;;;;;17.33;10.30;;;;;;;;;;10327787;28;20258;-70
2020/12/15 05:06:32;;;;;;;14.90;10.23;;;;;;;;;;10322044;28;20244;-70
2020/12/15 05:11:35;;;;;;;18.80;10.90;;;;;;;;;;10321257;28;20213;-69
2020/12/15 05:16:37;;;;;;;20.20;10.77;;;;;;;;;;10326854;28;20241;-70
2020/12/15 05:21:40;;;;;;;16.30;10.20;;;;;;;;;;10354409;28;20225;-71
2020/12/15 05:26:42;;;;;;;14.90;9.60;;;;;;;;;;10334452;28;20216;-70
2020/12/15 05:31:44;;;;;;;14.27;9.37;;;;;;;;;;10324759;28;20209;-70
2020/12/15 05:36:50;;;;;;;16.33;9.33;;;;;;;;;;10315813;28;20245;-69
2020/12/15 05:42:03;;;;;;;18.37;8.90;;;;;;;;;;10327431;28;20212;-70
2020/12/15 05:47:06;;;;;;;17.53;9.70;;;;;;;;;;10315447;28;20213;-71
2020/12/15 05:52:08;;;;;;;17.50;9.50;;;;;;;;;;10326019;28;20212;-70
2020/12/15 05:57:12;;;;;;;19.20;9.00;;;;;;;;;;10314793;28;20415;-72
2020/12/15 06:02:14;;;;;;;20.50;8.67;;;;;;;;;;10326967;28;20233;-71
2020/12/15 06:07:20;;;;;;;13.47;8.27;;;;;;;;;;10314935;28;20275;-69
2020/12/15 06:12:23;;;;;;;17.27;8.27;;;;;;;;;;10313184;28;20331;-70
2020/12/15 06:17:25;;;;;;;15.57;7.97;;;;;;;;;;10311640;28;20237;-71
2020/12/15 06:22:27;;;;;;;16.07;8.37;;;;;;;;;;10321730;28;20212;-72
2020/12/15 06:27:31;;;;;;;18.47;7.83;;;;;;;;;;10317292;28;20213;-71
2020/12/15 06:32:33;;;;;;;16.20;7.77;;;;;;;;;;10326992;28;20647;-70
2020/12/15 06:37:36;;;;;;;19.67;8.33;;;;;;;;;;10320014;28;20291;-70
2020/12/15 06:42:47;;;;;;;16.47;8.37;;;;;;;;;;10316510;28;20223;-70
2020/12/15 06:47:56;;;;;;;13.17;8.10;;;;;;;;;;10328072;28;20474;-70
2020/12/15 06:53:07;;;;;;;15.50;7.70;;;;;;;;;;10318142;28;20221;-69
2020/12/15 06:58:10;;;;;;;15.67;8.27;;;;;;;;;;10318845;28;20674;-69
2020/12/15 07:03:12;;;;;;;17.13;7.87;;;;;;;;;;10326299;28;20248;-70
2020/12/15 07:08:14;;;;;;;19.03;7.67;;;;;;;;;;10318455;28;20629;-70
2020/12/15 07:13:17;;;;;;;14.77;8.10;;;;;;;;;;10307290;28;20225;-69
2020/12/15 07:18:19;;;;;;;17.77;8.13;;;;;;;;;;10316183;28;21078;-69
2020/12/15 07:23:21;;;;;;;19.67;8.37;;;;;;;;;;10312823;28;20221;-70
2020/12/15 07:28:23;;;;;;;20.40;8.40;;;;;;;;;;10312295;28;20313;-69
2020/12/15 07:33:25;;;;;;;17.03;8.37;;;;;;;;;;10312234;28;20380;-69
2020/12/15 07:38:29;;;;;;;17.87;8.70;;;;;;;;;;10318678;28;20237;-69
2020/12/15 07:43:32;;;;;;;17.67;8.07;;;;;;;;;;10310850;28;20592;-69
2020/12/15 07:48:35;;;;;;;13.77;8.10;;;;;;;;;;10332108;28;20324;-68
2020/12/15 07:53:37;;;;;;;17.80;8.43;;;;;;;;;;10320503;28;20220;-69
2020/12/15 07:58:40;;;;;;;16.23;8.70;;;;;;;;;;10323404;28;20286;-72
2020/12/15 08:03:42;;;;;;;13.10;7.87;;;;;;;;;;10310811;28;20233;-69
2020/12/15 08:08:45;;;;;;;14.77;8.07;;;;;;;;;;10321151;28;20213;-69
2020/12/15 08:13:48;;;;;;;23.50;9.00;;;;;;;;;;10314406;28;20220;-69
2020/12/15 08:18:57;;;;;;;16.60;8.60;;;;;;;;;;10329152;28;20271;-68
2020/12/15 08:23:59;;;;;;;14.90;8.57;;;;;;;;;;10325473;28;20212;-69
2020/12/15 08:29:07;;;;;;;21.93;8.67;;;;;;;;;;10332457;28;20212;-69
2020/12/15 08:34:13;;;;;;;20.37;9.00;;;;;;;;;;10325589;28;20220;-69
2020/12/15 08:39:17;;;;;;;16.53;9.00;;;;;;;;;;10334696;28;20471;-70
2020/12/15 08:44:21;;;;;;;16.80;9.50;;;;;;;;;;10322986;28;20213;-70
2020/12/15 08:49:23;;;;;;;16.40;9.10;;;;;;;;;;10349855;28;20217;-70
2020/12/15 08:54:25;;;;;;;20.63;9.27;;;;;;;;;;10321875;28;20781;-69
2020/12/15 08:59:33;;;;;;;19.57;10.53;;;;;;;;;;10307634;28;20238;-70
2020/12/15 09:04:35;;;;;;;19.70;9.73;;;;;;;;;;10311107;28;20249;-70
2020/12/15 09:09:37;;;;;;;15.40;9.10;;;;;;;;;;10274582;28;20242;-69
2020/12/15 09:14:39;;;;;;;20.30;10.17;;;;;;;;;;10281173;28;20214;-69
2020/12/15 09:19:41;;;;;;;20.37;10.43;;;;;;;;;;10278294;28;20245;-69
2020/12/15 09:24:44;;;;;;;22.33;11.10;;;;;;;;;;10280262;28;20614;-69
2020/12/15 09:29:49;;;;;;;20.20;10.47;;;;;;;;;;10278960;28;20226;-71
2020/12/15 09:34:51;;;;;;;18.87;10.23;;;;;;;;;;10282749;28;20233;-70
2020/12/15 09:39:53;;;;;;;26.83;11.10;;;;;;;;;;10272685;28;20333;-70
2020/12/15 09:44:56;;;;;;;19.83;10.63;;;;;;;;;;10276112;28;20219;-69
2020/12/15 09:49:58;;;;;;;25.10;11.70;;;;;;;;;;10274746;28;20222;-70
2020/12/15 09:55:00;;;;;;;20.27;12.13;;;;;;;;;;10280149;28;20706;-70
2020/12/15 10:00:02;;;;;;;19.47;10.80;;;;;;;;;;10270550;28;20248;-70
2020/12/15 10:05:04;;;;;;;26.87;12.57;;;;;;;;;;10275982;28;20630;-70
2020/12/15 10:10:07;;;;;;;25.70;12.03;;;;;;;;;;10277183;28;20772;-70
2020/12/15 10:15:20;;;;;;;33.33;11.90;;;;;;;;;;10277161;28;20221;-70
2020/12/15 10:20:23;;;;;;;23.67;12.30;;;;;;;;;;10274315;28;20294;-70
2020/12/15 10:25:24;;;;;;;26.70;12.70;;;;;;;;;;10264497;28;20644;-71
2020/12/15 10:30:27;;;;;;;21.47;12.23;;;;;;;;;;10470490;28;20282;-71
2020/12/15 10:35:30;;;;;;;23.43;11.87;;;;;;;;;;10491409;28;20268;-70
2020/12/15 10:40:32;;;;;;;26.13;12.37;;;;;;;;;;10476738;28;20824;-71
2020/12/15 10:45:35;;;;;;;24.77;12.20;;;;;;;;;;10487151;28;20309;-70
2020/12/15 10:50:39;;;;;;;26.00;12.30;;;;;;;;;;10482189;28;20225;-71
2020/12/15 10:55:41;;;;;;;28.90;12.47;;;;;;;;;;10487716;28;20237;-70
2020/12/15 11:00:45;;;;;;;20.77;13.20;;;;;;;;;;10484786;28;20230;-71
2020/12/15 11:05:47;;;;;;;24.23;13.60;;;;;;;;;;10404032;28;20252;-70
2020/12/15 11:10:49;;;;;;;25.63;14.03;;;;;;;;;;10312453;28;20240;-69
2020/12/15 11:15:52;;;;;;;27.07;13.63;;;;;;;;;;10316783;28;20244;-69
2020/12/15 11:20:54;;;;;;;22.93;13.97;;;;;;;;;;10326446;28;20216;-68
2020/12/15 11:25:56;;;;;;;27.03;14.20;;;;;;;;;;10309995;28;20229;-70
2020/12/15 11:30:58;;;;;;;27.77;14.07;;;;;;;;;;10360188;28;20236;-69
2020/12/15 11:36:00;;;;;;;27.43;15.10;;;;;;;;;;10313810;28;20233;-69
2020/12/15 11:41:02;;;;;;;33.30;13.90;;;;;;;;;;10328121;28;20231;-69
2020/12/15 11:46:05;;;;;;;33.63;14.93;;;;;;;;;;10313424;28;20213;-69
2020/12/15 11:51:07;;;;;;;27.93;14.23;;;;;;;;;;10317662;28;20210;-69
2020/12/15 11:56:08;;;;;;;25.17;14.90;;;;;;;;;;10307298;28;20237;-69
2020/12/15 12:01:17;;;;;;;31.40;14.63;;;;;;;;;;10313229;28;20269;-68
2020/12/15 12:06:19;;;;;;;32.47;15.73;;;;;;;;;;10314609;28;20328;-69
2020/12/15 12:11:20;;;;;;;32.17;16.47;;;;;;;;;;10307220;28;20225;-69
2020/12/15 12:16:23;;;;;;;32.47;15.80;;;;;;;;;;10316158;28;20248;-68
2020/12/15 12:21:25;;;;;;;30.13;16.27;;;;;;;;;;10317249;28;20217;-68
2020/12/15 12:26:27;;;;;;;35.50;17.43;;;;;;;;;;10307762;28;20229;-68
2020/12/15 12:31:31;;;;;;;33.57;17.70;;;;;;;;;;10330634;28;20252;-69
2020/12/15 12:36:34;;;;;;;30.87;17.07;;;;;;;;;;10310980;28;20237;-68
2020/12/15 12:41:36;;;;;;;31.77;16.70;;;;;;;;;;10315232;28;20645;-69
2020/12/15 12:46:50;;;;;;;31.57;16.20;;;;;;;;;;10319556;28;20213;-69
2020/12/15 12:51:52;;;;;;;34.93;17.23;;;;;;;;;;10332512;28;20633;-69
2020/12/15 12:56:54;;;;;;;32.57;17.23;;;;;;;;;;10315133;28;20241;-69
2020/12/15 13:02:00;;;;;;;30.60;16.63;;;;;;;;;;10322269;28;20259;-68
2020/12/15 13:07:02;;;;;;;27.80;17.30;;;;;;;;;;10313584;28;20242;-69
2020/12/15 13:12:04;;;;;;;34.47;17.57;;;;;;;;;;10318044;28;20783;-68
2020/12/15 13:17:08;;;;;;;32.47;17.77;;;;;;;;;;10322081;28;20240;-69
2020/12/15 13:22:10;;;;;;;31.77;18.37;;;;;;;;;;10322990;28;20231;-69
2020/12/15 13:27:12;;;;;;;31.43;17.40;;;;;;;;;;10318988;28;20952;-70
2020/12/15 13:32:15;;;;;;;28.90;17.67;;;;;;;;;;10318663;28;20251;-70
2020/12/15 13:37:17;;;;;;;34.23;17.20;;;;;;;;;;10341505;28;20240;-70
2020/12/15 13:42:23;;;;;;;36.37;17.70;;;;;;;;;;10315885;28;20290;-70
2020/12/15 13:47:26;;;;;;;32.23;17.87;;;;;;;;;;10319898;28;20214;-70
2020/12/15 13:52:29;;;;;;;36.47;18.43;;;;;;;;;;10311988;28;20292;-69
2020/12/15 13:57:31;;;;;;;36.20;18.03;;;;;;;;;;10323849;28;20663;-69
2020/12/15 14:02:34;;;;;;;38.50;18.53;;;;;;;;;;10319581;28;20585;-70
2020/12/15 14:07:35;;;;;;;32.23;17.13;;;;;;;;;;10321085;28;20258;-69
2020/12/15 14:12:37;;;;;;;31.13;16.97;;;;;;;;;;10307620;28;20840;-69
2020/12/15 14:17:40;;;;;;;34.60;19.07;;;;;;;;;;10341469;28;20233;-70
2020/12/15 14:22:42;;;;;;;39.00;20.30;;;;;;;;;;10327361;28;20214;-70
2020/12/15 14:27:44;;;;;;;39.20;22.00;;;;;;;;;;10326531;28;20213;-69
2020/12/15 14:32:47;;;;;;;36.57;22.87;;;;;;;;;;10321271;28;20213;-69
2020/12/15 14:37:49;;;;;;;35.73;21.43;;;;;;;;;;10310893;28;20252;-69
2020/12/15 14:42:50;;;;;;;34.97;19.93;;;;;;;;;;10319720;28;20217;-68
2020/12/15 14:47:54;;;;;;;34.07;19.20;;;;;;;;;;10303269;28;20210;-68
2020/12/15 14:52:56;;;;;;;33.23;18.77;;;;;;;;;;10320178;28;20249;-68
2020/12/15 14:58:15;;;;;;;42.47;19.13;;;;;;;;;;10309006;28;20234;-69
2020/12/15 15:03:17;;;;;;;36.00;19.70;;;;;;;;;;10319152;28;20237;-69
2020/12/15 15:08:20;;;;;;;32.40;18.17;;;;;;;;;;10314621;28;20269;-69
2020/12/15 15:13:22;;;;;;;30.90;17.70;;;;;;;;;;10339151;28;20729;-68
2020/12/15 15:18:25;;;;;;;31.87;16.27;;;;;;;;;;10319383;28;20270;-68
2020/12/15 15:23:33;;;;;;;23.63;15.83;;;;;;;;;;10312949;28;20228;-70
2020/12/15 15:28:37;;;;;;;28.90;17.40;;;;;;;;;;10315988;28;20224;-69
2020/12/15 15:33:42;;;;;;;29.00;17.93;;;;;;;;;;10309975;28;20216;-70
2020/12/15 15:38:44;;;;;;;29.30;17.67;;;;;;;;;;10310262;28;20263;-70
2020/12/15 15:43:46;;;;;;;33.37;18.13;;;;;;;;;;10317743;28;20313;-69
2020/12/15 15:48:49;;;;;;;36.30;19.30;;;;;;;;;;10310522;28;20209;-69
2020/12/15 15:53:51;;;;;;;40.80;19.87;;;;;;;;;;10337865;28;20709;-70
2020/12/15 15:58:53;;;;;;;42.77;20.43;;;;;;;;;;10309487;28;20612;-71
2020/12/15 16:03:56;;;;;;;41.37;20.20;;;;;;;;;;10316416;28;20245;-71
2020/12/15 16:08:57;;;;;;;41.17;21.30;;;;;;;;;;10313159;28;20842;-70
2020/12/15 16:13:59;;;;;;;38.70;20.63;;;;;;;;;;10315205;28;20597;-69
2020/12/15 16:19:02;;;;;;;42.40;20.73;;;;;;;;;;10307637;28;20685;-69
2020/12/15 16:24:04;;;;;;;38.97;21.37;;;;;;;;;;10309424;28;20224;-69
2020/12/15 16:29:06;;;;;;;37.97;22.00;;;;;;;;;;10309926;28;20237;-69
2020/12/15 16:34:08;;;;;;;42.73;21.60;;;;;;;;;;10313480;28;20266;-69
2020/12/15 16:39:10;;;;;;;38.47;21.27;;;;;;;;;;10305258;28;20241;-70
2020/12/15 16:44:25;;;;;;;44.10;22.50;;;;;;;;;;10310868;28;20224;-71
2020/12/15 16:49:28;;;;;;;39.80;21.20;;;;;;;;;;10307243;28;20218;-68
2020/12/15 16:54:30;;;;;;;38.63;21.83;;;;;;;;;;10325188;28;20213;-68
2020/12/15 16:59:33;;;;;;;39.93;20.20;;;;;;;;;;10310242;28;20328;-69
2020/12/15 17:04:35;;;;;;;40.97;20.80;;;;;;;;;;10313997;28;20244;-71
2020/12/15 17:09:37;;;;;;;37.60;19.50;;;;;;;;;;10306753;28;20214;-71
2020/12/15 17:14:39;;;;;;;40.90;19.93;;;;;;;;;;10306815;28;20224;-70
2020/12/15 17:19:41;;;;;;;43.33;21.27;;;;;;;;;;10310676;28;20346;-71
2020/12/15 17:24:43;;;;;;;36.87;20.20;;;;;;;;;;10312945;28;20213;-70
2020/12/15 17:29:45;;;;;;;40.53;21.30;;;;;;;;;;10321750;28;20213;-72
2020/12/15 18:55:57;;;;;;;53.40;24.50;;;;;;;;;;10592614;27;20735;-70
2020/12/15 19:01:03;;;;;;;45.93;24.17;;;;;;;;;;10607671;27;20828;-70
2020/12/15 19:06:12;;;;;;;48.57;24.57;;;;;;;;;;10598977;27;20234;-71
2020/12/15 19:11:19;;;;;;;56.63;25.63;;;;;;;;;;10600383;27;20251;-70
2020/12/15 19:16:22;;;;;;;58.07;27.13;;;;;;;;;;10604580;27;20211;-69
2020/12/15 19:21:29;;;;;;;52.27;26.57;;;;;;;;;;10604414;27;20699;-70
2020/12/15 19:26:34;;;;;;;50.67;27.10;;;;;;;;;;10598194;27;20685;-70
2020/12/15 19:31:37;;;;;;;55.27;25.33;;;;;;;;;;10598826;27;20285;-70
2020/12/15 19:36:43;;;;;;;50.17;25.90;;;;;;;;;;10601950;27;20240;-71
2020/12/15 19:41:46;;;;;;;50.47;27.33;;;;;;;;;;10608567;27;20208;-72
2020/12/15 19:46:53;;;;;;;59.30;29.40;;;;;;;;;;10601671;27;20220;-71
2020/12/15 19:52:00;;;;;;;54.87;27.23;;;;;;;;;;10573779;27;20254;-72
2020/12/15 19:57:08;;;;;;;58.93;27.70;;;;;;;;;;10423875;27;20238;-70
2020/12/15 20:02:16;;;;;;;47.47;26.03;;;;;;;;;;10449123;27;20271;-71
2020/12/15 20:07:22;;;;;;;59.40;28.03;;;;;;;;;;10424579;27;20309;-72
2020/12/15 20:12:30;;;;;;;57.63;27.10;;;;;;;;;;10427107;27;20211;-70
2020/12/15 20:17:37;;;;;;;52.53;26.50;;;;;;;;;;10433602;27;20251;-71
2020/12/15 20:22:43;;;;;;;54.60;26.70;;;;;;;;;;10446864;27;20257;-71
2020/12/15 20:27:51;;;;;;;61.00;26.43;;;;;;;;;;10422519;27;20223;-70
2020/12/15 20:32:58;;;;;;;53.17;26.07;;;;;;;;;;10427499;27;20690;-70
2020/12/15 20:38:04;;;;;;;54.87;26.67;;;;;;;;;;10425401;27;20246;-70
2020/12/15 20:43:12;;;;;;;60.63;26.67;;;;;;;;;;10426704;27;20202;-70
2020/12/15 20:48:19;;;;;;;52.73;26.00;;;;;;;;;;10436597;27;20211;-70
2020/12/15 20:53:26;;;;;;;59.80;25.53;;;;;;;;;;10425787;27;20252;-70
2020/12/15 20:58:28;;;;;;;58.77;24.93;;;;;;;;;;10440062;27;20245;-70
2020/12/15 21:03:35;;;;;;;52.63;24.70;;;;;;;;;;10441150;27;20613;-70
2020/12/15 21:08:42;;;;;;;52.30;24.80;;;;;;;;;;10445207;27;20218;-71
2020/12/15 21:13:49;;;;;;;55.47;25.87;;;;;;;;;;10449469;27;20216;-71
2020/12/15 21:18:56;;;;;;;57.63;25.73;;;;;;;;;;10453998;27;20238;-71
2020/12/15 21:24:03;;;;;;;55.33;24.70;;;;;;;;;;10443436;27;20467;-71
2020/12/15 21:29:10;;;;;;;49.60;24.00;;;;;;;;;;10440640;27;20211;-71
2020/12/15 21:34:17;;;;;;;57.87;24.00;;;;;;;;;;10441032;27;20623;-72
2020/12/15 21:39:19;;;;;;;50.57;23.33;;;;;;;;;;10441369;27;20883;-72
2020/12/15 21:44:23;;;;;;;58.63;24.17;;;;;;;;;;10439822;27;20215;-72
2020/12/15 21:49:25;;;;;;;51.13;23.53;;;;;;;;;;10439275;27;20227;-71
2020/12/15 21:54:27;;;;;;;46.17;23.57;;;;;;;;;;10441120;27;20580;-72
2020/12/15 21:59:30;;;;;;;50.17;23.83;;;;;;;;;;10445611;27;20245;-72
2020/12/15 22:04:31;;;;;;;47.80;23.00;;;;;;;;;;10442686;27;20238;-72
2020/12/15 22:09:33;;;;;;;55.07;23.43;;;;;;;;;;10432885;27;20218;-71
2020/12/15 22:14:36;;;;;;;48.63;23.93;;;;;;;;;;10434690;27;20401;-71
2020/12/15 22:19:38;;;;;;;50.47;22.90;;;;;;;;;;10440639;27;20266;-72
2020/12/15 22:24:53;;;;;;;47.97;22.53;;;;;;;;;;10443361;27;20251;-71
2020/12/15 22:29:56;;;;;;;52.50;23.33;;;;;;;;;;10444334;27;20241;-70
2020/12/15 22:34:59;;;;;;;51.00;22.27;;;;;;;;;;10439164;27;20276;-70
2020/12/15 22:40:00;;;;;;;54.83;23.87;;;;;;;;;;10437522;27;20241;-70
2020/12/15 22:45:03;;;;;;;57.87;23.33;;;;;;;;;;10436197;27;20240;-70
2020/12/15 22:50:05;;;;;;;51.37;21.57;;;;;;;;;;10439041;27;20462;-70
2020/12/15 22:55:07;;;;;;;50.83;22.30;;;;;;;;;;10445372;27;20227;-70
2020/12/15 23:00:11;;;;;;;165.77;21.27;;;;;;;;;;10438501;27;21171;-70
2020/12/15 23:05:15;;;;;;;120.23;19.90;;;;;;;;;;10444304;27;20227;-72
2020/12/15 23:10:19;;;;;;;84.30;20.27;;;;;;;;;;10432137;27;20314;-73
2020/12/15 23:15:22;;;;;;;173.17;20.57;;;;;;;;;;10444890;27;20217;-72
2020/12/15 23:20:24;;;;;;;141.97;21.50;;;;;;;;;;10436888;27;20238;-71
2020/12/15 23:25:26;;;;;;;59.73;19.00;;;;;;;;;;10439967;27;20211;-71
2020/12/15 23:30:28;;;;;;;63.07;19.60;;;;;;;;;;10431983;27;20234;-71
2020/12/15 23:35:30;;;;;;;45.10;19.57;;;;;;;;;;10430262;27;20575;-71
2020/12/15 23:40:32;;;;;;;102.50;19.60;;;;;;;;;;10447167;27;20622;-71
2020/12/15 23:45:35;;;;;;;160.27;21.13;;;;;;;;;;10435396;27;20211;-71
2020/12/15 23:50:37;;;;;;;93.00;19.10;;;;;;;;;;10459588;27;20584;-71
2020/12/15 23:55:39;;;;;;;86.93;20.00;;;;;;;;;;10438603;27;20839;-71
